1965 Tropical Cyclone AMANDA:GISELE (1965355S09134)


IBTrACS version v04r00. Visit IBTrACS website for data access.
Please direct all questions to the IBTrACS Q and A forum

Storm track - Intensity - Wind Radii - Intensity Data - Source Data - All data

Summary Information

Storm ID 1965355S09134
Start Dec 20 23Z
Landfall Dec 28 08Z, Dec 28 21Z, Dec 30 15Z, Jan 1 09Z
Max Intensity 50 kt (Dec 31 18Z), 990 mb (Dec 30 09Z)
End Jan 2 01Z
ATCF IDs ,SH051966
Track status Best track data.

Storm track plot

Map of storm track

Intensity plots

Map of storm track

Radial wind information

No radial wind information for this storm


Position and Intensity Table

BASIN ISO_TIME_________ NATURE LAT LON WMO PRES BOM PRES DS824 WIND DS824 PRES NEUMANN WIND NEUMANN PRES
degrees north degrees east mb mb kts mb kts mb
SI 1965-12-20 23:00:00 NR -9.40 133.90
SI 23:30:00 NR -9.65 133.96 1002 1002
SI 1965-12-21 00:00:00 TS -9.70 134.08 1002 25 1002
SI 03:00:00 TS -9.94 134.53 1002 25 1002
SI 05:30:00 TS -10.19 134.79 1002 1002 25 1002
SI 06:00:00 TS -10.23 134.83 1002 25 1002 25 1002
SI 09:00:00 TS -10.62 134.79 1002 25 1002 25 1002
SI 11:00:00 TS -10.86 134.76 1002 25 1002 25 1002
SI 11:30:00 TS -10.91 134.77 1002 1002 25 1002 25 1002
SI 12:00:00 TS -10.96 134.80 1002 25 1002 25 1002
SP 15:00:00 TS -11.16 135.26 1002 25 1002
SP 18:00:00 TS -11.27 135.88 1002 1002 25 1002
SP 21:00:00 TS -11.39 136.43 1002 25 1002
SP 23:00:00 TS -11.42 136.78 1002 25 1002
SP 23:30:00 TS -11.41 136.86 1002 1002 25 1002
SP 1965-12-22 00:00:00 TS -11.39 136.95 1001 25 1002
SP 03:00:00 TS -11.14 137.44 1000 25 1001
SP 06:00:00 TS -10.84 137.81 1000 1000 25 1001
SP 09:00:00 TS -10.67 137.95 1000 25 1001
SP 11:00:00 TS -10.60 138.02 1000 25 1001
SP 12:00:00 TS -10.58 138.09 1000 1000 25 1001
SP 13:30:00 TS -10.56 138.25 1001 1001 26 1000
SP 15:00:00 TS -10.63 138.42 1000 27 1000
SP 18:00:00 TS -10.87 138.69 1000 1000 30 1000
SP 21:00:00 TS -10.99 138.81 1000 30 1000
SP 23:00:00 TS -11.03 138.84 1000 30 1000
SP 23:30:00 TS -11.04 138.85 1000 1000 30 1000
SP 1965-12-23 00:00:00 TS -11.05 138.86 1000 30 1000 30 1000
SP 03:00:00 TS -11.08 138.89 1000 30 1000
SP 06:00:00 TS -11.07 138.88 1000 1000 30 1000
SP 09:00:00 TS -11.00 138.86 1000 30 1000
SP 11:00:00 TS -10.96 138.82 1000 30 1000
SP 12:00:00 TS -10.96 138.79 1000 1000 30 1000
SP 15:00:00 TS -11.05 138.66 1000 30 1000
SP 18:00:00 TS -11.18 138.51 1000 1000 30 1000
SP 21:00:00 TS -11.32 138.40 1000 30 1000
SP 23:00:00 TS -11.39 138.33 1000 30 1000
SP 23:30:00 TS -11.41 138.31 1000 1000 30 1000
SP 1965-12-24 00:00:00 TS -11.42 138.29 1000 30 1000 30 1000
SP 03:00:00 TS -11.47 138.17 1000 30 1000
SP 06:00:00 TS -11.49 138.02 1000 1000 30 1000
SP 09:00:00 TS -11.52 137.83 1000 30 1000
SP 09:30:00 TS -11.51 137.81 1000 30 1000
SP 11:00:00 TS -11.45 137.74 1000 30 1000
SP 12:00:00 TS -11.40 137.70 1000 1000 30 1000
SP 15:00:00 TS -11.30 137.53 1000 30 1000
SP 18:00:00 TS -11.20 137.33 1000 1000 30 1000
SP 21:00:00 TS -11.09 137.14 1000 30 1000
SP 23:00:00 TS -11.00 137.04 1000 30 1000
SP 1965-12-25 00:00:00 TS -10.95 137.01 1000 1000 30 1000 30 1000
SP 03:00:00 TS -10.73 137.02 1000 30 999
SP 06:00:00 TS -10.47 137.14 1000 1000 30 999
SP 08:30:00 TS -10.22 137.30 999 30 999
SP 09:00:00 TS -10.19 137.33 999 30 999
SP 11:00:00 TS -10.14 137.44 999 30 999
SP 11:30:00 TS -10.14 137.45 999 30 999
SP 12:00:00 TS -10.13 137.46 999 30 999
SP 15:00:00 TS -10.16 137.44 999 30 999
SP 15:30:00 TS -10.16 137.43 999 30 999
SP 18:00:00 TS -10.15 137.26 999 999 30 999
SP 21:00:00 TS -10.18 136.99 999 30 999
SP 23:00:00 TS -10.23 136.78 999 30 999
SP 23:30:00 TS -10.25 136.73 999 999 30 999
SP 1965-12-26 00:00:00 TS -10.27 136.68 998 30 999 30 999
SP 03:00:00 TS -10.46 136.40 998 30 999
SP 06:00:00 TS -10.66 136.14 998 998 30 999
SP 09:00:00 TS -10.76 135.89 998 30 999
SP 11:00:00 TS -10.80 135.75 998 30 999
SP 12:00:00 TS -10.82 135.70 998 998 30 999
SP 15:00:00 TS -10.89 135.58 998 32 998
SP 15:30:00 TS -10.90 135.55 998 32 998
SP 18:00:00 TS -10.93 135.28 998 998 35 998
SP 21:00:00 TS -10.85 135.09 998 35 998
SP 23:00:00 TS -10.80 135.01 998 35 998
SI 23:30:00 TS -10.80 134.99 998 998 35 998
SI 1965-12-27 00:00:00 TS -10.81 134.96 998 35 998 35 998
SI 03:00:00 TS -10.97 134.80 998 35 998
SI 06:00:00 TS -11.19 134.63 998 998 35 998
SI 09:00:00 TS -11.35 134.41 998 35 998
SI 11:00:00 TS -11.42 134.25 998 35 998
SI 12:00:00 TS -11.43 134.18 998 998 35 998
SI 14:30:00 TS -11.41 134.03 997 35 998
SI 15:00:00 TS -11.40 134.00 997 35 998
SI 18:00:00 TS -11.28 133.84 997 997 35 998
SI 21:00:00 TS -11.14 133.61 997 35 998
SI 23:00:00 TS -11.07 133.43 997 35 998
SI 1965-12-28 00:00:00 TS -11.06 133.33 997 997 35 997 35 998
SI 03:00:00 TS -11.06 133.01 996 35 997 35 997
SI 06:00:00 TS -11.19 132.66 996 996 35 997 35 997
SI 08:10:00 TS -11.36 132.41 997 997 35 997
SI 09:00:00 TS -11.42 132.32 996 35 997
SI 11:00:00 TS -11.56 132.16 996 35 997
SI 12:00:00 TS -11.64 132.08 996 996 35 997
SI 15:00:00 TS -11.95 131.86 996 37 997
SI 15:30:00 TS -12.01 131.82 997 997 37 997
SI 18:00:00 TS -12.24 131.63 997 997 40 997
SI 21:00:00 TS -12.55 131.38 997 40 997
SI 23:00:00 TS -12.73 131.22 997 40 997
SI 1965-12-29 00:00:00 TS -12.81 131.15 997 997 35 997 40 997
SI 03:00:00 TS -12.94 131.00 997 37 997
SI 06:00:00 TS -13.05 130.87 997 997 35 997
SI 09:00:00 TS -13.21 130.70 997 35 997
SI 11:00:00 TS -13.34 130.56 997 35 997
SI 12:00:00 TS -13.40 130.48 997 997 35 997
SI 15:00:00 TS -13.59 130.20 997 35 996
SI 15:30:00 TS -13.62 130.16 997 997 35 996
SI 18:00:00 TS -13.76 130.03 997 997 35 996
SI 21:00:00 TS -13.94 129.80 997 35 996
SI 23:00:00 TS -14.06 129.62 997 35 996
SI 1965-12-30 00:00:00 TS -14.12 129.53 997 997 35 996 35 996
SI 03:00:00 TS -14.33 129.31 996 40 994
SI 06:00:00 TS -14.52 129.07 996 996 45 992
SI 09:00:00 TS -14.69 128.77 990 45 992
SI 09:30:00 TS -14.72 128.72 990 990 45 992
SI 11:00:00 TS -14.82 128.55 993 45 992
SI 12:00:00 TS -14.88 128.44 995 995 45 992
SI 15:00:00 TS -14.97 128.12 996 45 992
SI 18:00:00 TS -15.02 127.73 997 45 992
SI 19:00:00 TS -15.04 127.57 997 44 992
SI 21:00:00 TS -15.10 127.19 998 42 992
SI 23:00:00 TS -15.19 126.77 999 40 992
SI 1965-12-31 00:00:00 TS -15.25 126.56 999 30 1000 40 992
SI 01:00:00 TS -15.32 126.36 1000 1000 40 992
SI 03:00:00 TS -15.49 125.99 42 992
SI 06:00:00 TS -15.74 125.43 45 992
SI 09:00:00 TS -15.97 124.91 45 991
SI 11:00:00 TS -16.11 124.59 45 991
SI 12:00:00 TS -16.19 124.43 45 991
SI 15:00:00 TS -16.41 123.96 47 991
SI 17:00:00 TS -16.58 123.66 49 991
SI 18:00:00 TS -16.66 123.51 50 991
SI 21:00:00 TS -16.94 123.06 47 991
SI 23:00:00 TS -17.15 122.79 45 991
SI 1966-01-01 00:00:00 TS -17.26 122.66 45 991
SI 01:00:00 TS -17.37 122.53 993 993 45 991
SI 03:00:00 TS -17.78 122.12 991 45 991
SI 06:00:00 TS -18.48 121.61 990 45 990 45 991
SI 07:00:00 TS -19.05 121.22 990 990 43 991 44 991
SI 09:00:00 TS -20.10 120.65 992 40 994 42 993
SI 11:00:00 TS -20.59 120.56 995 36 996 40 994
SI 12:00:00 TS -20.84 120.51 996 35 998 40 995
SI 13:00:00 TS -21.11 120.47 998 998 34 998 38 995
SI 15:00:00 TS -21.66 120.40 998 33 998 35 996
SI 18:00:00 TS -22.53 120.29 998 32 999 30 998
SI 21:00:00 TS -23.42 120.18 999 31 999 27 998
SI 23:00:00 TS -24.02 120.10 999 30 999 25 998
SI 1966-01-02 00:00:00 TS -24.32 120.06 999 30 1000 25 999
SI 01:00:00 NR -24.70 120.00 1000 1000

Source Information

Agency Information
USA bsh051966.txt
TOKYO
CMA
HKO
NEWDELHI
REUNION
BOM IDCKMSTM0S.csv:Line=4279:AMANDA
NADI
WELLINGTON
DS824 aus_area.dat:378:AMANDA
TD9636 cons_worldwide_trop_cyclone_18710101-19891231-006:Line=7326
TD9635
NEUMANN tracks.sh:Storm=152:GISELE/AMAND:A:BSH0566
MLC

All available IBTrACS Data

SEASON BASIN SUBBASIN ISO_TIME_________ NATURE LAT LON WMO PRES WMO AGENCY DIST2LAND LANDFALL IFLAG USA AGENCY USA ATCF_ID USA LAT USA LON USA SSHS BOM LAT BOM LON BOM PRES BOM PRES_METHOD DS824 LAT DS824 LON DS824 STAGE DS824 WIND DS824 PRES TD9636 LAT TD9636 LON TD9636 STAGE NEUMANN LAT NEUMANN LON NEUMANN CLASS NEUMANN WIND NEUMANN PRES STORM SPEED STORM DIR
Year degrees north degrees east mb km km degrees north degrees east 1 degrees north degrees east mb degrees north degrees east kts mb degrees north degrees east degrees north degrees east kts mb kts degrees
1966 SI WA 1965-12-20 23:00:00 NR -9.40 133.90 249 229 __________O___ -1 -9.40 133.90 1 31 167
1966 SI WA 23:30:00 NR -9.65 133.96 1002 bom 234 225 ______O___P___ -1 -10.00 134.00 1002 -9.47 133.94 1 21 150
1966 SI WA 1965-12-21 00:00:00 TS -9.70 134.08 231 222 O_____P__OP___ jtwc_sh SH051966 -9.60 134.00 -1 -9.97 134.13 1002 -10.00 134.00 TC 25 1002 -9.55 133.97 1 11 117
1966 SI WA 03:00:00 TS -9.94 134.53 226 209 P_____P__PP___ SH051966 -10.07 134.23 -1 -9.87 134.81 1002 -9.90 134.67 TC 25 1002 -9.99 134.20 1 9 124
1966 SI WA 05:30:00 TS -10.19 134.79 1002 bom 209 209 P_____O__PP___ SH051966 -10.43 134.45 -1 -10.00 135.00 1002 -9.96 134.98 TC 25 1002 -10.34 134.42 1 8 134
1966 SI WA 06:00:00 TS -10.23 134.83 209 167 O_____P__OP_O_ jtwc_sh SH051966 -10.50 134.50 -1 -10.06 134.97 1002 -10.00 135.00 TC 25 1002 -10.40 134.47 1 -10.00 135.10 TC 25 1002 7 182
1966 SI WA 09:00:00 TS -10.62 134.79 167 145 P_____P__PP_P_ SH051966 -10.84 134.86 -1 -10.59 134.53 1002 -10.43 134.77 TC 25 1002 -10.78 134.81 1 -10.53 134.70 TC 25 1002 8 186
1966 SI WA 11:00:00 TS -10.86 134.76 134 134 P_____P__PO_P_ SH051966 -11.02 135.14 -1 -10.94 134.31 1002 -10.81 134.46 TC 25 1002 -11.00 135.10 1 -10.80 134.58 TC 25 1002 7 0
1966 SI WA 11:30:00 TS -10.91 134.77 1002 bom 134 134 P_____O__PP_P_ SH051966 -11.06 135.22 -1 -11.00 134.30 1002 -10.91 134.38 TC 25 1002 -11.05 135.18 1 -10.86 134.58 TC 25 1002 6 163
1966 SI WA 12:00:00 TS -10.96 134.80 123 109 O_____P__OP_O_ jtwc_sh SH051966 -11.10 135.30 -1 -11.04 134.36 1002 -11.00 134.30 TC 25 1002 -11.10 135.26 1 -10.90 134.60 TC 25 1002 9 117
1966 SP EA 15:00:00 TS -11.16 135.26 105 89 P_____P__PP_P_ SH051966 -11.29 135.84 -1 -11.08 135.09 1002 -11.36 134.19 TC -11.34 135.81 1 -11.02 135.01 TC 25 1002 11 106
1966 SP EA 18:00:00 TS -11.27 135.88 1002 bom 90 68 O_____O__PP_O_ jtwc_sh SH051966 -11.40 136.40 -1 -11.00 136.00 1002 -11.60 134.27 TC -11.49 136.40 1 -11.00 135.70 TC 25 1002 12 102
1966 SP EA 21:00:00 TS -11.39 136.43 68 67 P_____P__PP_P_ SH051966 -11.52 136.93 -1 -11.03 136.49 1002 -11.75 134.49 TC -11.54 136.97 1 -11.03 136.39 TC 25 1002 11 99
1966 SP EA 23:00:00 TS -11.42 136.78 74 74 P_____P__PO_P_ SH051966 -11.53 137.25 -1 -11.01 136.81 1002 -11.80 134.72 TC -11.50 137.30 1 -11.02 136.82 TC 25 1002 10 92
1966 SP EA 23:30:00 TS -11.41 136.86 1002 bom 80 80 P_____O__PP_P_ SH051966 -11.52 137.33 -1 -11.00 136.90 1002 -11.81 134.78 TC -11.47 137.37 1 -11.01 136.91 TC 25 1002 10 81
1966 SP EA 1965-12-22 00:00:00 TS -11.39 136.95 80 80 O_____P__PP_O_ jtwc_sh SH051966 -11.50 137.40 -1 -10.97 137.03 1001 -11.82 134.85 TC -11.44 137.44 1 -11.00 137.00 TC 25 1002 11 65
1966 SP EA 03:00:00 TS -11.14 137.44 140 140 P_____P__PP_P_ SH051966 -11.19 137.80 -1 -10.73 137.89 1000 -11.81 135.30 TC -11.16 137.79 1 -10.88 137.35 TC 25 1001 10 57
1966 SP EA 06:00:00 TS -10.84 137.81 1000 bom 189 189 O_____O__PP_O_ jtwc_sh SH051966 -10.80 138.10 -1 -10.50 138.50 1000 -11.75 135.83 TC -10.82 138.07 1 -10.70 137.60 TC 25 1001 7 47
1966 SP EA 09:00:00 TS -10.67 137.95 209 209 P_____P__PP_P_ SH051966 -10.52 138.34 -1 -10.62 138.15 1000 -11.65 136.39 TC -10.52 138.29 1 -10.46 137.91 TC 25 1001 4 40
1966 SP EA 11:00:00 TS -10.60 138.02 219 219 P_____P__PO_P_ SH051966 -10.41 138.45 -1 -10.61 137.95 1000 -11.57 136.77 TC -10.40 138.40 1 -10.34 138.11 TC 25 1001 3 56
1966 SP EA 12:00:00 TS -10.58 138.09 1000 bom 225 225 O_____O__PP_O_ jtwc_sh SH051966 -10.40 138.50 -1 -10.50 138.00 1000 -11.52 136.96 TC -10.41 138.46 1 -10.30 138.20 TC 25 1001 5 80
1966 SP EA 13:30:00 TS -10.56 138.25 1001 bom 237 237 P_____O__PP_P_ SH051966 -10.45 138.57 -1 -10.20 138.30 1001 -11.45 137.25 TC -10.46 138.55 1 -10.29 138.34 TC 26 1000 6 99
1966 SP EA 15:00:00 TS -10.63 138.42 244 242 P_____P__PP_P_ SH051966 -10.55 138.62 -1 -10.29 138.59 1000 -11.38 137.52 TC -10.55 138.62 1 -10.33 138.47 TC 27 1000 7 126
1966 SP EA 18:00:00 TS -10.87 138.69 1000 bom 242 242 O_____O__PP_O_ jtwc_sh SH051966 -10.80 138.70 -1 -11.00 139.00 1000 -11.23 138.03 TC -10.77 138.72 1 -10.50 138.70 TC 30 1000 5 133
1966 SP EA 21:00:00 TS -10.99 138.81 244 244 P_____P__PP_P_ SH051966 -10.99 138.77 -1 -11.06 138.95 1000 -11.10 138.47 TC -10.99 138.78 1 -10.76 138.89 TC 30 1000 3 137
1966 SP EA 23:00:00 TS -11.03 138.84 244 244 P_____P__PO_P_ SH051966 -11.08 138.79 -1 -11.01 138.82 1000 -11.03 138.70 TC -11.10 138.80 1 -10.93 138.98 TC 30 1000 1 136
1966 SP EA 23:30:00 TS -11.04 138.85 1000 bom 253 253 P_____O__PP_P_ SH051966 -11.09 138.80 -1 -11.00 138.80 1000 -11.01 138.75 TC -11.10 138.81 1 -10.97 138.99 TC 30 1000 1 0
1966 SP EA 1965-12-23 00:00:00 TS -11.05 138.86 253 246 O_____P__OP_O_ jtwc_sh SH051966 -11.10 138.80 -1 -11.02 138.80 1000 -11.00 138.80 TC 30 1000 -11.10 138.81 1 -11.00 139.00 TC 30 1000 1 142
1966 SP EA 03:00:00 TS -11.08 138.89 246 246 P_____P__PP_P_ SH051966 -11.03 138.82 -1 -11.19 138.89 1000 -11.04 138.87 TC -11.02 138.82 1 -11.09 138.99 TC 30 1000 0 0
1966 SP EA 06:00:00 TS -11.07 138.88 1000 bom 246 246 O_____O__PP_O_ jtwc_sh SH051966 -10.90 138.80 -1 -11.30 139.00 1000 -11.08 138.88 TC -10.91 138.80 1 -11.10 138.90 TC 30 1000 1 0
1966 SP EA 09:00:00 TS -11.00 138.86 253 244 P_____P__PP_P_ SH051966 -10.80 138.76 -1 -11.17 139.05 1000 -11.13 138.84 TC -10.82 138.75 1 -11.10 138.80 TC 30 1000 2 328
1966 SP EA 11:00:00 TS -10.96 138.82 244 244 P_____P__PO_P_ SH051966 -10.78 138.72 -1 -11.05 139.03 1000 -11.16 138.78 TC -10.80 138.70 1 -11.10 138.73 TC 30 1000 2 299
1966 SP EA 12:00:00 TS -10.96 138.79 1000 bom 244 235 O_____O__PP_O_ jtwc_sh SH051966 -10.80 138.70 -1 -11.00 139.00 1000 -11.18 138.75 TC -10.84 138.68 1 -11.10 138.70 TC 30 1000 3 241
1966 SP EA 15:00:00 TS -11.05 138.66 235 204 P_____P__PP_P_ SH051966 -11.03 138.61 -1 -10.95 138.77 1000 -11.22 138.64 TC -11.01 138.60 1 -11.14 138.65 TC 30 1000 4 231
1966 SP EA 18:00:00 TS -11.18 138.51 1000 bom 204 189 O_____O__PP_O_ jtwc_sh SH051966 -11.30 138.50 -1 -11.00 138.50 1000 -11.26 138.50 TC -11.22 138.49 1 -11.20 138.60 TC 30 1000 4 223
1966 SP EA 21:00:00 TS -11.32 138.40 189 173 P_____P__PP_P_ SH051966 -11.45 138.41 -1 -11.14 138.31 1000 -11.29 138.35 TC -11.41 138.38 1 -11.23 138.51 TC 30 1000 3 221
1966 SP EA 23:00:00 TS -11.39 138.33 173 173 P_____P__PO_P_ SH051966 -11.50 138.34 -1 -11.27 138.22 1000 -11.30 138.25 TC -11.50 138.30 1 -11.27 138.44 TC 30 1000 3 223
1966 SP EA 23:30:00 TS -11.41 138.31 1000 bom 173 173 P_____O__PP_P_ SH051966 -11.50 138.32 -1 -11.30 138.20 1000 -11.30 138.23 TC -11.51 138.28 1 -11.28 138.42 TC 30 1000 3 227
1966 SP EA 1965-12-24 00:00:00 TS -11.42 138.29 173 158 O_____P__OP_O_ jtwc_sh SH051966 -11.50 138.30 -1 -11.33 138.19 1000 -11.30 138.20 TC 30 1000 -11.51 138.27 1 -11.30 138.40 TC 30 1000 3 246
1966 SP EA 03:00:00 TS -11.47 138.17 158 141 P_____P__PP_P_ SH051966 -11.42 138.16 -1 -11.50 138.19 1000 -11.32 138.01 TC -11.48 138.16 1 -11.49 138.26 TC 30 1000 3 255
1966 SP EA 06:00:00 TS -11.49 138.02 1000 bom 141 124 O_____O__PP_O_ jtwc_sh SH051966 -11.30 138.00 -1 -11.70 138.10 1000 -11.34 137.80 TC -11.39 138.05 1 -11.70 138.10 TC 30 1000 3 262
1966 SP EA 09:00:00 TS -11.52 137.83 124 124 P_____P__PP_P_ SH051966 -11.25 137.86 -1 -12.02 137.73 1000 -11.34 137.58 TC -11.28 137.91 1 -11.86 137.94 TC 30 1000 4 265
1966 SP EA 09:30:00 TS -11.51 137.81 bom 124 124 P_____I__PP_P_ SH051966 -11.24 137.83 -1 -12.00 137.70 1000 -11.34 137.55 TC -11.26 137.88 1 -11.88 137.92 TC 30 1000 3 308
1966 SP EA 11:00:00 TS -11.45 137.74 126 126 P_____P__PO_P_ SH051966 -11.22 137.76 -1 -11.72 137.75 1000 -11.33 137.45 TC -11.20 137.80 1 -11.91 137.84 TC 30 1000 4 315
1966 SP EA 12:00:00 TS -11.40 137.70 1000 bom 126 120 O_____O__PP_O_ jtwc_sh SH051966 -11.20 137.70 -1 -11.50 137.80 1000 -11.32 137.39 TC -11.18 137.72 1 -11.90 137.80 TC 30 1000 4 306
1966 SP EA 15:00:00 TS -11.30 137.53 124 120 P_____P__PP_P_ SH051966 -11.10 137.51 -1 -11.30 137.67 1000 -11.29 137.22 TC -11.13 137.47 1 -11.75 137.70 TC 30 1000 4 299
1966 SP EA 18:00:00 TS -11.20 137.33 1000 bom 125 117 O_____O__PP_O_ jtwc_sh SH051966 -11.00 137.30 -1 -11.30 137.40 1000 -11.22 137.11 TC -11.07 137.21 1 -11.50 137.60 TC 30 1000 4 298
1966 SP EA 21:00:00 TS -11.09 137.14 120 120 P_____P__PP_P_ SH051966 -10.98 137.05 -1 -11.16 137.18 1000 -11.13 137.06 TC -10.98 137.00 1 -11.27 137.42 TC 30 1000 4 304
1966 SP EA 23:00:00 TS -11.00 137.04 124 124 P_____P__PO_P_ SH051966 -10.94 136.93 -1 -11.05 137.06 1000 -11.05 137.08 TC -10.90 136.90 1 -11.09 137.32 TC 30 1000 4 320
1966 SP EA 1965-12-25 00:00:00 TS -10.95 137.01 1000 bom 134 134 O_____O__OP_O_ jtwc_sh SH051966 -10.90 136.90 -1 -11.00 137.00 1000 -11.00 137.10 TC 30 1000 -10.83 136.89 1 -11.00 137.30 TC 30 1000 4 0
1966 SP EA 03:00:00 TS -10.73 137.02 155 155 P_____P__PP_P_ SH051966 -10.62 136.98 -1 -11.00 136.71 1000 -10.79 137.35 TC -10.59 136.93 1 -10.68 137.33 TC 30 999 5 14
1966 SP EA 06:00:00 TS -10.47 137.14 1000 bom 180 180 O_____O__PP_O_ jtwc_sh SH051966 -10.30 137.10 -1 -10.70 136.80 1000 -10.56 137.63 TC -10.33 137.02 1 -10.40 137.50 TC 30 999 6 29
1966 SP EA 08:30:00 TS -10.22 137.30 bom 204 204 P_____I__PP_P_ SH051966 -10.13 137.10 -1 -10.00 137.40 999 -10.38 137.85 TC -10.14 137.08 1 -10.25 137.76 TC 30 999 7 35
1966 SP EA 09:00:00 TS -10.19 137.33 204 191 P_____P__PP_P_ SH051966 -10.10 137.09 -1 -9.97 137.52 999 -10.35 137.88 TC -10.10 137.09 1 -10.23 137.82 TC 30 999 4 57
1966 SP EA 11:00:00 TS -10.14 137.44 191 191 P_____P__PO_P_ SH051966 -10.02 137.04 -1 -10.13 137.93 999 -10.24 137.98 TC -10.00 137.10 2 -10.19 138.03 TC 30 999 3 63
1966 SP EA 11:30:00 TS -10.14 137.45 bom 190 190 P_____I__PP_P_ SH051966 -10.01 137.02 -1 -10.20 138.00 999 -10.22 137.99 TC -9.99 137.09 2 -10.20 138.07 TC 30 999 2 0
1966 SP EA 12:00:00 TS -10.13 137.46 190 190 O_____P__OP_O_ jtwc_sh SH051966 -10.00 137.00 -1 -10.25 138.06 999 -10.20 138.00 TC -9.97 137.07 2 -10.20 138.10 TC 30 999 0 0
1966 SP EA 15:00:00 TS -10.16 137.44 202 202 P_____P__PP_P_ SH051966 -9.96 136.87 -1 -10.51 138.06 999 -10.15 137.89 TC -9.96 136.94 2 -10.35 138.15 TC 30 999 1 238
1966 SP EA 15:30:00 TS -10.16 137.43 bom 202 202 P_____I__PP_P_ SH051966 -9.96 136.85 -1 -10.50 138.00 999 -10.15 137.86 TC -9.96 136.91 2 -10.38 138.14 TC 30 999 4 271
1966 SP EA 18:00:00 TS -10.15 137.26 999 bom 204 204 O_____O__PP_O_ jtwc_sh SH051966 -10.00 136.70 -1 -10.20 137.50 999 -10.17 137.65 TC -10.01 136.75 2 -10.50 138.00 TC 30 999 5 268
1966 SP EA 21:00:00 TS -10.18 136.99 208 204 P_____P__PP_P_ SH051966 -10.07 136.50 -1 -10.15 137.20 999 -10.23 137.33 TC -10.12 136.54 2 -10.41 137.68 TC 30 999 6 261
1966 SP EA 23:00:00 TS -10.23 136.78 204 204 P_____P__PO_P_ SH051966 -10.15 136.36 -1 -10.26 137.05 999 -10.28 137.11 TC -10.20 136.40 2 -10.32 137.42 TC 30 999 6 254
1966 SP EA 23:30:00 TS -10.25 136.73 999 bom 202 191 P_____O__PP_P_ SH051966 -10.17 136.33 -1 -10.30 137.00 999 -10.29 137.05 TC -10.22 136.37 2 -10.31 137.36 TC 30 999 7 249
1966 SP EA 1965-12-26 00:00:00 TS -10.27 136.68 191 179 O_____P__OP_O_ jtwc_sh SH051966 -10.20 136.30 -1 -10.34 136.92 998 -10.30 137.00 TC 30 999 -10.24 136.35 2 -10.30 137.30 TC 30 999 7 237
1966 SP EA 03:00:00 TS -10.46 136.40 168 149 P_____P__PP_P_ SH051966 -10.40 136.15 -1 -10.69 136.35 998 -10.34 136.77 TC -10.38 136.18 2 -10.36 137.04 TC 30 999 7 234
1966 SP EA 06:00:00 TS -10.66 136.14 998 bom 151 146 O_____O__PP_O_ jtwc_sh SH051966 -10.60 136.00 -1 -11.00 135.80 998 -10.38 136.56 TC -10.55 136.02 2 -10.50 136.80 TC 30 999 6 239
1966 SP EA 09:00:00 TS -10.76 135.89 146 145 P_____P__PP_P_ SH051966 -10.71 135.81 -1 -11.04 135.38 998 -10.43 136.35 TC -10.71 135.83 2 -10.66 136.54 TC 30 999 5 250
1966 SP EA 11:00:00 TS -10.80 135.75 145 145 P_____P__PO_P_ SH051966 -10.77 135.67 -1 -11.01 135.27 998 -10.47 136.21 TC -10.80 135.70 2 -10.76 136.38 TC 30 999 4 254
1966 SP EA 12:00:00 TS -10.82 135.70 998 bom 145 134 O_____O__PP_O_ jtwc_sh SH051966 -10.80 135.60 -1 -11.00 135.30 998 -10.49 136.15 TC -10.84 135.62 2 -10.80 136.30 TC 30 999 3 242
1966 SP EA 15:00:00 TS -10.89 135.58 134 134 P_____P__PP_P_ SH051966 -10.91 135.36 -1 -11.00 135.82 998 -10.54 135.94 TC -10.92 135.37 2 -10.89 136.09 TC 32 998 3 241
1966 SP EA 15:30:00 TS -10.90 135.55 bom 134 134 P_____I__PP_P_ SH051966 -10.92 135.31 -1 -11.00 135.80 998 -10.55 135.91 TC -10.94 135.33 2 -10.90 136.06 TC 32 998 6 263
1966 SP EA 18:00:00 TS -10.93 135.28 998 bom 138 138 O_____O__PP_O_ jtwc_sh SH051966 -11.00 135.10 -1 -11.00 135.00 998 -10.60 135.74 TC -10.99 135.11 2 -10.90 135.90 TC 35 998 5 277
1966 SP EA 21:00:00 TS -10.85 135.09 149 147 P_____P__PP_P_ SH051966 -11.05 134.83 -1 -10.81 135.00 998 -10.65 135.52 TC -11.06 134.86 2 -10.78 135.70 TC 35 998 4 296
1966 SP EA 23:00:00 TS -10.80 135.01 147 147 P_____P__PO_P_ SH051966 -11.08 134.67 -1 -10.71 135.25 998 -10.68 135.38 TC -11.10 134.70 2 -10.71 135.57 TC 35 998 3 296
1966 SI WA 23:30:00 TS -10.80 134.99 998 bom 147 147 P_____O__PP_P_ SH051966 -11.09 134.63 -1 -10.70 135.30 998 -10.69 135.34 TC -11.12 134.66 2 -10.70 135.53 TC 35 998 3 261
1966 SI WA 1965-12-27 00:00:00 TS -10.81 134.96 147 123 O_____P__OP_O_ jtwc_sh SH051966 -11.10 134.60 -1 -10.71 135.29 998 -10.70 135.30 TC 35 998 -11.13 134.63 2 -10.70 135.50 TC 35 998 4 226
1966 SI WA 03:00:00 TS -10.97 134.80 123 99 P_____P__PP_P_ SH051966 -11.20 134.44 -1 -10.95 135.10 998 -10.71 135.06 TC -11.24 134.44 2 -10.85 135.31 TC 35 998 5 220
1966 SI WA 06:00:00 TS -11.19 134.63 998 bom 99 81 O_____O__PP_O_ jtwc_sh SH051966 -11.30 134.30 -1 -11.30 134.80 998 -10.72 134.82 TC -11.33 134.26 2 -11.10 135.10 TC 35 998 5 226
1966 SI WA 09:00:00 TS -11.35 134.41 70 68 P_____P__PP_P_ SH051966 -11.38 134.09 -1 -11.61 134.55 998 -10.73 134.57 TC -11.39 134.10 2 -11.32 134.87 TC 35 998 5 238
1966 SI WA 11:00:00 TS -11.42 134.25 68 62 P_____P__PO_P_ SH051966 -11.40 133.96 -1 -11.76 134.38 998 -10.74 134.40 TC -11.40 134.00 1 -11.45 134.69 TC 35 998 5 250
1966 SI WA 12:00:00 TS -11.43 134.18 998 bom 62 49 O_____O__PP_O_ jtwc_sh SH051966 -11.40 133.90 -1 -11.80 134.30 998 -10.74 134.31 TC -11.38 133.96 1 -11.50 134.60 TC 35 998 4 271
1966 SI WA 14:30:00 TS -11.41 134.03 bom 49 49 P_____I__PP_P_ SH051966 -11.34 133.81 -1 -11.80 134.10 997 -10.77 134.09 TC -11.30 133.86 1 -11.61 134.36 TC 35 998 4 280
1966 SI WA 15:00:00 TS -11.40 134.00 49 46 P_____P__PP_P_ SH051966 -11.32 133.80 -1 -11.77 134.08 997 -10.77 134.05 TC -11.28 133.84 1 -11.62 134.31 TC 35 998 4 306
1966 SI WA 18:00:00 TS -11.28 133.84 997 bom 55 55 O_____O__PP_O_ jtwc_sh SH051966 -11.20 133.70 -1 -11.50 134.00 997 -10.82 133.77 TC -11.15 133.71 1 -11.60 134.00 TC 35 998 5 304
1966 SI WA 21:00:00 TS -11.14 133.61 78 62 P_____P__PP_P_ SH051966 -11.08 133.54 -1 -11.31 133.75 997 -10.89 133.49 TC -11.04 133.54 1 -11.28 133.70 TC 35 998 5 297
1966 SI WA 23:00:00 TS -11.07 133.43 62 55 P_____P__PO_P_ SH051966 -11.02 133.39 -1 -11.23 133.52 997 -10.96 133.30 TC -11.00 133.40 2 -11.07 133.50 TC 35 998 6 288
1966 SI WA 1965-12-28 00:00:00 TS -11.06 133.33 997 bom 55 35 O_____O__OP_O_ jtwc_sh SH051966 -11.00 133.30 -1 -11.20 133.40 997 -11.00 133.20 TC 35 997 -11.00 133.30 2 -11.00 133.40 TC 35 998 6 272
1966 SI WA 03:00:00 TS -11.06 133.01 35 24 P_____P__PP_P_ SH051966 -11.01 132.97 -1 -11.05 133.10 996 -11.13 132.90 TC 35 997 -11.03 132.97 2 -11.07 133.09 TC 35 997 7 259
1966 SI WA 06:00:00 TS -11.19 132.66 996 bom 24 0 O_____O__OP_O_ jtwc_sh SH051966 -11.10 132.60 -1 -11.20 132.70 996 -11.30 132.60 TC 35 997 -11.12 132.60 2 -11.30 132.80 TC 35 997 8 243
1966 SI WA 08:10:00 TS -11.36 132.41 997 bom 0 0 P_____O__PP_P_ SH051966 -11.21 132.34 -1 -11.60 132.30 997 -11.46 132.40 TC -11.22 132.33 2 -11.46 132.64 TC 35 997 8 235
1966 SI WA 09:00:00 TS -11.42 132.32 0 0 P_____P__PP_P_ SH051966 -11.26 132.24 -1 -11.66 132.23 996 -11.53 132.33 TC -11.27 132.23 2 -11.53 132.58 TC 35 997 7 230
1966 SI WA 11:00:00 TS -11.56 132.16 11 11 P_____P__PO_P_ SH051966 -11.41 132.01 -1 -11.67 132.20 996 -11.70 132.16 TC -11.40 132.00 1 -11.71 132.46 TC 35 997 7 226
1966 SI WA 12:00:00 TS -11.64 132.08 996 bom 11 11 O_____O__PP_O_ jtwc_sh SH051966 -11.50 131.90 -1 -11.70 132.20 996 -11.80 132.08 TC -11.48 131.90 1 -11.80 132.40 TC 35 997 7 217
1966 SI WA 15:00:00 TS -11.95 131.86 33 33 P_____P__PP_P_ SH051966 -11.78 131.63 -1 -12.14 132.04 996 -12.10 131.85 TC -11.77 131.64 1 -12.09 132.21 TC 37 997 8 215
1966 SI WA 15:30:00 TS -12.01 131.82 997 bom 33 11 P_____O__PP_P_ SH051966 -11.84 131.59 -1 -12.20 132.00 997 -12.15 131.82 TC -11.82 131.60 1 -12.14 132.18 TC 37 997 7 217
1966 SI WA 18:00:00 TS -12.24 131.63 997 bom 11 0 O_____O__PP_O_ jtwc_sh SH051966 -12.10 131.40 -1 -12.30 131.80 997 -12.42 131.63 TC -12.09 131.41 1 -12.40 132.00 TC 40 997 8 218
1966 SI WA 21:00:00 TS -12.55 131.38 0 0 P_____P__PP_P_ SH051966 -12.43 131.18 -1 -12.54 131.49 997 -12.72 131.42 TC -12.41 131.21 1 -12.73 131.71 TC 40 997 8 219
1966 SI WA 23:00:00 TS -12.73 131.22 0 0 P_____P__PO_P_ SH051966 -12.62 131.05 -1 -12.72 131.28 997 -12.91 131.27 TC -12.60 131.10 1 -12.92 131.50 TC 40 997 7 221
1966 SI WA 1965-12-29 00:00:00 TS -12.81 131.15 997 bom 0 0 O_____O__OP_O_ jtwc_sh SH051966 -12.70 131.00 -1 -12.80 131.20 997 -13.00 131.20 TC 35 997 -12.67 131.05 1 -13.00 131.40 TC 40 997 4 225
1966 SI WA 03:00:00 TS -12.94 131.00 0 0 P_____P__PP_P_ SH051966 -12.81 130.89 -1 -12.91 131.09 997 -13.20 131.00 TC -12.84 130.92 1 -13.12 131.14 TC 37 997 4 228
1966 SI WA 06:00:00 TS -13.05 130.87 997 bom 0 0 O_____O__PP_O_ jtwc_sh SH051966 -12.90 130.80 -1 -13.00 131.00 997 -13.37 130.81 TC -12.97 130.81 1 -13.20 130.90 TC 35 997 4 228
1966 SI WA 09:00:00 TS -13.21 130.70 0 0 P_____P__PP_P_ SH051966 -13.08 130.67 -1 -13.17 130.84 997 -13.52 130.62 TC -13.10 130.69 1 -13.34 130.65 TC 35 997 5 227
1966 SI WA 11:00:00 TS -13.34 130.56 0 0 P_____P__PO_P_ SH051966 -13.23 130.56 -1 -13.32 130.64 997 -13.61 130.49 TC -13.20 130.60 1 -13.45 130.48 TC 35 997 6 228
1966 SI WA 12:00:00 TS -13.40 130.48 997 bom 0 0 O_____O__PP_O_ jtwc_sh SH051966 -13.30 130.50 -1 -13.40 130.50 997 -13.65 130.42 TC -13.26 130.54 1 -13.50 130.40 TC 35 997 6 234
1966 SI WA 15:00:00 TS -13.59 130.20 0 0 P_____P__PP_P_ SH051966 -13.50 130.31 -1 -13.67 129.85 997 -13.77 130.19 TC -13.45 130.36 1 -13.65 130.14 TC 35 996 7 235
1966 SI WA 15:30:00 TS -13.62 130.16 997 bom 0 0 P_____O__PP_P_ SH051966 -13.53 130.27 -1 -13.70 129.80 997 -13.78 130.15 TC -13.48 130.32 1 -13.67 130.10 TC 35 996 5 225
1966 SI WA 18:00:00 TS -13.76 130.03 997 bom 0 0 O_____O__PP_O_ jtwc_sh SH051966 -13.70 130.10 -1 -13.80 130.00 997 -13.88 129.94 TC -13.65 130.15 1 -13.80 129.90 TC 35 996 5 228
1966 SI WA 21:00:00 TS -13.94 129.80 0 0 P_____P__PP_P_ SH051966 -13.90 129.90 -1 -13.98 129.80 997 -13.99 129.64 TC -13.86 129.94 1 -13.94 129.69 TC 35 996 6 233
1966 SI WA 23:00:00 TS -14.06 129.62 0 0 P_____P__PO_P_ SH051966 -14.03 129.77 -1 -14.12 129.53 997 -14.06 129.42 TC -14.00 129.80 2 -14.04 129.56 TC 35 996 6 233
1966 SI WA 1965-12-30 00:00:00 TS -14.12 129.53 997 bom 10 0 O_____O__OP_O_ jtwc_sh SH051966 -14.10 129.70 -1 -14.20 129.40 997 -14.10 129.30 TC 35 996 -14.07 129.74 2 -14.10 129.50 TC 35 996 6 228
1966 SI WA 03:00:00 TS -14.33 129.31 10 10 P_____P__PP_P_ SH051966 -14.30 129.50 -1 -14.47 129.21 996 -14.18 128.88 TC -14.28 129.54 2 -14.30 129.32 TC 40 994 6 229
1966 SI WA 06:00:00 TS -14.52 129.07 996 bom 34 22 O_____O__PP_O_ jtwc_sh SH051966 -14.50 129.30 -1 -14.70 129.00 996 -14.26 128.41 TC -14.49 129.35 2 -14.50 129.10 TC 45 992 6 235
1966 SI WA 09:00:00 TS -14.69 128.77 22 22 P_____P__PP_P_ SH051966 -14.71 129.10 -1 -14.75 128.67 990 -14.34 127.91 TC -14.68 129.14 2 -14.66 128.79 TC 45 992 7 240
1966 SI WA 09:30:00 TS -14.72 128.72 990 bom 22 11 P_____O__PP_P_ SH051966 -14.75 129.07 -1 -14.80 128.60 990 -14.36 127.82 TC -14.71 129.11 2 -14.69 128.74 TC 45 992 7 238
1966 SI WA 11:00:00 TS -14.82 128.55 11 0 P_____P__PO_P_ SH051966 -14.84 128.97 -1 -15.10 128.37 993 -14.40 127.55 TC -14.80 129.00 2 -14.76 128.54 TC 45 992 8 238
1966 SI WA 12:00:00 TS -14.88 128.44 995 bom 10 0 O_____O__PP_O_ jtwc_sh SH051966 -14.90 128.90 -1 -15.30 128.20 995 -14.44 127.37 TC -14.85 128.93 2 -14.80 128.40 TC 45 992 7 250
1966 SI WA 15:00:00 TS -14.97 128.12 0 0 P_____P__PP_P_ SH051966 -15.01 128.71 -1 -15.33 127.79 996 -14.56 126.81 TC -15.00 128.73 2 -14.91 127.98 TC 45 992 7 259
1966 SI WA 18:00:00 TS -15.02 127.73 0 0 O_____P__PP_O_ jtwc_sh SH051966 -15.10 128.50 -1 -15.06 127.25 997 -14.72 126.24 TC -15.13 128.50 2 -15.00 127.40 TC 45 992 8 263
1966 SI WA 19:00:00 TS -15.04 127.57 bom 0 0 P_____I__PP_P_ SH051966 -15.13 128.42 -1 -15.00 127.00 997 -14.78 126.05 TC -15.16 128.42 2 -15.02 127.14 TC 44 992 11 261
1966 SI WA 21:00:00 TS -15.10 127.19 0 0 P_____P__PP_P_ SH051966 -15.20 128.24 -1 -14.99 126.22 998 -14.93 125.67 TC -15.24 128.22 2 -15.06 126.54 TC 42 992 12 259
1966 SI WA 23:00:00 TS -15.19 126.77 0 0 P_____P__PO_P_ SH051966 -15.27 128.03 -1 -15.07 125.38 999 -15.10 125.29 TC -15.30 128.00 7 -15.14 125.90 TC 40 992 12 256
1966 SI WA 1965-12-31 00:00:00 TS -15.25 126.56 0 0 O_____P__OP_O_ jtwc_sh SH051966 -15.30 127.90 -1 -15.16 125.01 999 -15.20 125.10 TC 30 1000 -15.33 127.87 7 -15.20 125.60 TC 40 992 12 252
1966 SI WA 01:00:00 TS -15.32 126.36 1000 bom 0 0 P_____O__PP_P_ SH051966 -15.34 127.76 -1 -15.30 124.70 1000 -15.31 124.91 TC -15.35 127.74 7 -15.29 125.32 TC 40 992 12 246
1966 SI WA 03:00:00 TS -15.49 125.99 bom 0 0 P_____O__PP_P_ SH051966 -15.41 127.43 -1 -15.70 124.30 -15.54 124.53 TC -15.40 127.44 7 -15.50 124.79 TC 42 992 12 245
1966 SI WA 06:00:00 TS -15.74 125.43 0 0 O_____P__PP_O_ jtwc_sh SH051966 -15.50 126.90 -1 -16.16 123.76 -15.93 123.95 TC -15.46 126.96 7 -15.90 124.10 TC 45 992 11 245
1966 SI WA 09:00:00 TS -15.97 124.91 0 0 P_____P__PP_P_ SH051966 -15.54 126.40 -1 -16.50 123.29 -16.36 123.41 TC -15.54 126.45 7 -16.31 123.55 TC 45 991 11 245
1966 SI WA 11:00:00 TS -16.11 124.59 bom 0 0 P_____O__PO_P_ SH051966 -15.57 126.07 -1 -16.70 123.00 -16.65 123.06 TC -15.60 126.10 7 -16.58 123.24 TC 45 991 10 244
1966 SI WA 12:00:00 TS -16.19 124.43 0 0 O_____P__OP_O_ jtwc_sh SH051966 -15.60 125.90 -1 -16.80 122.86 -16.80 122.90 TC -15.64 125.93 7 -16.70 123.10 TC 45 991 10 243
1966 SI WA 15:00:00 TS -16.41 123.96 0 0 P_____P__PP_P_ SH051966 -15.73 125.39 -1 -17.09 122.46 -17.18 122.43 TC -15.77 125.42 7 -17.00 122.68 TC 47 991 10 242
1966 SI WA 17:00:00 TS -16.58 123.66 bom 0 0 P_____O__PP_P_ SH051966 -15.84 125.06 -1 -17.30 122.20 -17.43 122.14 TC -15.87 125.09 7 -17.19 122.43 TC 49 991 10 240
1966 SI WA 18:00:00 TS -16.66 123.51 0 0 O_____P__PP_O_ jtwc_sh SH051966 -15.90 124.90 -1 -17.41 122.05 -17.56 122.00 TC -15.92 124.92 7 -17.30 122.30 TC 50 991 10 237
1966 SI WA 21:00:00 TS -16.94 123.06 0 0 P_____P__PP_P_ SH051966 -16.10 124.44 -1 -17.77 121.61 -17.96 121.62 TC -16.09 124.43 7 -17.66 121.88 TC 47 991 10 235
1966 SI WA 23:00:00 TS -17.15 122.79 0 0 P_____P__PO_P_ SH051966 -16.24 124.14 -1 -18.06 121.33 -18.25 121.40 TC -16.20 124.10 7 -17.94 121.62 TC 45 991 10 231
1966 SI WA 1966-01-01 00:00:00 TS -17.26 122.66 0 0 O_____P__P__O_ jtwc_sh SH051966 -16.30 124.00 -1 -18.22 121.21 -18.41 121.29 TC 7 -18.10 121.50 TC 45 991 10 228
1966 SI WA 01:00:00 TS -17.37 122.53 993 bom 0 0 P_____O__P__P_ SH051966 -16.36 123.86 -1 -18.40 121.10 993 -18.57 121.19 TC 7 -18.27 121.38 TC 45 991 15 225
1966 SI WA 03:00:00 TS -17.78 122.12 10 10 P_____P__P__P_ SH051966 -16.46 123.59 -1 -18.79 120.93 991 -18.91 121.02 TC 7 -18.65 121.16 TC 45 991 17 219
1966 SI WA 06:00:00 TS -18.48 121.61 15 15 O_____P__O__O_ jtwc_sh SH051966 -16.60 123.20 -1 -19.46 120.75 990 -19.50 120.80 TC 45 990 7 -19.30 120.90 TC 45 991 23 214
1966 SI WA 07:00:00 TS -19.05 121.22 990 bom 30 0 ______O__P__P_ SH051966 -1 -19.70 120.70 990 4 -19.71 120.74 TC 43 991 7 -19.51 120.83 TC 44 991 37 209
1966 SI WA 09:00:00 TS -20.10 120.65 0 0 ______P__P__P_ SH051966 -1 -20.17 120.59 992 -20.16 120.63 TC 40 994 7 -19.96 120.72 TC 42 993 25 202
1966 SI WA 11:00:00 TS -20.59 120.56 0 0 ______P__P__P_ SH051966 -1 -20.67 120.49 995 -20.65 120.54 TC 36 996 -20.44 120.64 TC 40 994 15 189
1966 SI WA 12:00:00 TS -20.84 120.51 0 0 ______P__O__O_ -1 -20.93 120.44 996 -20.90 120.50 TC 35 998 -20.70 120.60 TC 40 995 16 189
1966 SI WA 13:00:00 TS -21.11 120.47 998 bom 0 0 ______O__P__P_ -1 -21.20 120.40 998 -21.16 120.46 TC 34 998 -20.97 120.56 TC 38 995 17 188
1966 SI WA 15:00:00 TS -21.66 120.40 0 0 ______P__P__P_ -1 -21.75 120.32 998 -21.71 120.38 TC 33 998 -21.53 120.49 TC 35 996 17 187
1966 SI WA 18:00:00 TS -22.53 120.29 0 0 ______P__P__O_ -1 -22.60 120.21 998 -22.58 120.25 TC 32 999 -22.40 120.40 TC 30 998 18 187
1966 SI WA 21:00:00 TS -23.42 120.18 0 0 ______P__P__P_ -1 -23.49 120.12 999 -23.48 120.13 TC 31 999 -23.26 120.30 TC 27 998 18 186
1966 SI WA 23:00:00 TS -24.02 120.10 0 0 ______P__P__P_ -1 -24.09 120.06 999 -24.09 120.04 TC 30 999 -23.82 120.23 TC 25 998 18 187
1966 SI WA 1966-01-02 00:00:00 TS -24.32 120.06 0 0 ______P__O__O_ -1 -24.40 120.03 999 -24.40 120.00 TC 30 1000 -24.10 120.20 TC 25 999 21 188
1966 SI WA 01:00:00 NR -24.70 120.00 1000 bom 0 ______O_______ -1 -24.70 120.00 1000 TC TC 23 189